createdAt,value
2018-12-04T00:01:36.399Z,8.60
2018-12-04T00:04:04.683Z,8.60
2018-12-04T00:06:32.966Z,8.70
2018-12-04T00:09:01.334Z,8.70
2018-12-04T00:11:29.581Z,8.80
2018-12-04T00:13:57.846Z,8.80
2018-12-04T00:16:26.092Z,8.70
2018-12-04T00:18:54.336Z,8.80
2018-12-04T00:21:22.595Z,8.80
2018-12-04T00:23:50.823Z,8.80
2018-12-04T00:26:19.064Z,8.80
2018-12-04T00:28:47.308Z,8.70
2018-12-04T00:31:15.535Z,8.70
2018-12-04T00:33:43.791Z,8.60
2018-12-04T00:36:12.045Z,8.60
2018-12-04T00:38:40.287Z,8.60
2018-12-04T00:41:08.554Z,8.60
2018-12-04T00:43:36.803Z,8.60
2018-12-04T00:46:05.039Z,8.70
2018-12-04T00:48:33.300Z,8.70
2018-12-04T00:51:01.697Z,8.80
2018-12-04T00:53:29.907Z,8.70
2018-12-04T00:55:58.180Z,8.70
2018-12-04T00:58:26.431Z,8.80
2018-12-04T01:00:54.650Z,8.70
2018-12-04T01:03:22.886Z,8.60
2018-12-04T01:05:51.127Z,8.60
2018-12-04T01:08:19.361Z,8.60
2018-12-04T01:10:47.605Z,8.50
2018-12-04T01:13:15.853Z,8.50
2018-12-04T01:15:44.090Z,8.50
2018-12-04T01:18:12.320Z,8.50
2018-12-04T01:20:40.580Z,8.50
2018-12-04T01:23:08.897Z,8.50
2018-12-04T01:25:37.429Z,8.40
2018-12-04T01:28:05.689Z,8.30
2018-12-04T01:30:33.946Z,8.30
2018-12-04T01:33:02.247Z,8.30
2018-12-04T01:35:30.478Z,8.40
2018-12-04T01:37:58.740Z,8.30
2018-12-04T01:40:26.970Z,8.30
2018-12-04T01:42:55.219Z,8.20
2018-12-04T01:45:23.453Z,8.30
2018-12-04T01:47:51.686Z,8.20
2018-12-04T01:50:19.906Z,8.20
2018-12-04T01:52:48.179Z,8.20
2018-12-04T01:55:16.454Z,8.20
2018-12-04T01:57:44.691Z,8.30
2018-12-04T02:00:12.962Z,8.40
2018-12-04T02:02:41.201Z,8.40
2018-12-04T02:05:09.420Z,8.40
2018-12-04T02:07:37.711Z,8.40
2018-12-04T02:10:05.980Z,8.40
2018-12-04T02:12:34.325Z,8.40
2018-12-04T02:15:02.782Z,8.50
2018-12-04T02:17:31.043Z,8.50
2018-12-04T02:19:59.340Z,8.50
2018-12-04T02:22:27.574Z,8.40
2018-12-04T02:24:55.813Z,8.40
2018-12-04T02:27:24.078Z,8.40
2018-12-04T02:29:52.319Z,8.50
2018-12-04T02:32:20.570Z,8.50
2018-12-04T02:34:48.810Z,8.50
2018-12-04T02:37:17.050Z,8.50
2018-12-04T02:39:45.275Z,8.60
2018-12-04T02:42:13.564Z,8.60
2018-12-04T02:44:41.805Z,8.60
2018-12-04T02:47:10.062Z,8.60
2018-12-04T02:49:38.372Z,8.60
2018-12-04T02:52:06.622Z,8.50
2018-12-04T02:54:34.906Z,8.50
2018-12-04T02:57:03.180Z,8.50
2018-12-04T02:59:31.428Z,8.40
2018-12-04T03:01:59.727Z,8.40
2018-12-04T03:04:27.993Z,8.40
2018-12-04T03:06:56.240Z,8.40
2018-12-04T03:09:24.470Z,8.40
2018-12-04T03:11:52.684Z,8.40
2018-12-04T03:14:20.930Z,8.30
2018-12-04T03:16:49.168Z,8.30
2018-12-04T03:19:17.399Z,8.30
2018-12-04T03:21:45.612Z,8.20
2018-12-04T03:24:13.852Z,8.30
2018-12-04T03:26:42.119Z,8.30
2018-12-04T03:29:10.350Z,8.40
2018-12-04T03:31:38.604Z,8.30
2018-12-04T03:34:06.896Z,8.40
2018-12-04T03:36:35.299Z,8.40
2018-12-04T03:39:03.572Z,8.30
2018-12-04T03:42:01.168Z,8.40
2018-12-04T03:44:28.626Z,8.40
2018-12-04T03:46:56.100Z,8.40
2018-12-04T03:49:23.569Z,8.40
2018-12-04T03:51:51.062Z,8.40
2018-12-04T03:54:18.724Z,8.40
2018-12-04T03:56:46.257Z,8.40
2018-12-04T03:59:13.745Z,8.30
2018-12-04T04:01:41.225Z,8.30
2018-12-04T04:04:08.663Z,8.40
2018-12-04T04:06:36.147Z,8.40
2018-12-04T04:09:05.774Z,8.40
2018-12-04T04:11:33.211Z,8.30
2018-12-04T04:14:00.767Z,8.20
2018-12-04T04:16:28.297Z,8.20
2018-12-04T04:18:55.858Z,8.10
2018-12-04T04:21:23.313Z,8.00
2018-12-04T04:23:50.812Z,8.00
2018-12-04T04:26:18.255Z,7.80
2018-12-04T04:28:45.752Z,7.80
2018-12-04T04:31:13.220Z,7.80
2018-12-04T04:33:40.692Z,7.70
2018-12-04T04:36:08.160Z,7.60
2018-12-04T04:38:35.637Z,7.60
2018-12-04T04:41:03.074Z,7.50
2018-12-04T04:43:30.514Z,7.50
2018-12-04T04:45:57.959Z,7.40
2018-12-04T04:48:25.505Z,7.40
2018-12-04T04:50:52.935Z,7.30
2018-12-04T04:53:20.430Z,7.20
2018-12-04T04:55:47.921Z,7.20
2018-12-04T04:58:15.488Z,7.20
2018-12-04T05:00:43.038Z,7.10
2018-12-04T05:03:10.522Z,7.10
2018-12-04T05:05:39.954Z,7.10
2018-12-04T05:08:07.400Z,7.00
2018-12-04T05:10:34.870Z,6.90
2018-12-04T05:13:02.358Z,6.90
2018-12-04T05:15:29.838Z,6.80
2018-12-04T05:17:57.289Z,6.90
2018-12-04T05:20:24.742Z,6.80
2018-12-04T05:22:52.189Z,6.80
2018-12-04T05:25:19.680Z,6.80
2018-12-04T05:27:47.881Z,6.80
2018-12-04T05:30:15.444Z,6.70
2018-12-04T05:32:42.880Z,6.70
2018-12-04T05:35:10.401Z,6.70
2018-12-04T05:37:37.869Z,6.60
2018-12-04T05:40:05.989Z,6.60
2018-12-04T05:42:33.510Z,6.60
2018-12-04T05:45:01.013Z,6.50
2018-12-04T05:47:28.550Z,6.50
2018-12-04T05:49:56.040Z,6.40
2018-12-04T05:52:23.486Z,6.40
2018-12-04T05:54:50.988Z,6.40
2018-12-04T05:57:18.442Z,6.50
2018-12-04T05:59:45.902Z,6.60
2018-12-04T06:02:13.385Z,6.70
2018-12-04T06:04:40.960Z,6.70
2018-12-04T06:07:08.518Z,6.50
2018-12-04T06:09:36.083Z,6.50
2018-12-04T06:12:03.679Z,6.50
2018-12-04T06:14:31.320Z,6.60
2018-12-04T06:16:58.844Z,6.70
2018-12-04T06:19:26.396Z,6.70
2018-12-04T06:21:53.856Z,6.70
2018-12-04T06:24:21.299Z,6.70
2018-12-04T06:26:48.734Z,6.70
2018-12-04T06:29:16.254Z,6.60
2018-12-04T06:31:43.845Z,6.70
2018-12-04T06:34:11.389Z,6.70
2018-12-04T06:36:38.973Z,6.70
2018-12-04T06:39:06.538Z,6.70
2018-12-04T06:41:34.017Z,6.70
2018-12-04T06:44:01.498Z,6.80
2018-12-04T06:46:28.937Z,6.70
2018-12-04T06:48:56.362Z,6.80
2018-12-04T06:51:23.899Z,6.70
2018-12-04T06:53:51.473Z,6.80
2018-12-04T06:56:18.947Z,6.80
2018-12-04T06:58:46.397Z,6.80
2018-12-04T07:01:13.881Z,6.80
2018-12-04T07:03:41.330Z,6.70
2018-12-04T07:06:08.798Z,6.60
2018-12-04T07:08:36.290Z,6.70
2018-12-04T07:11:03.846Z,6.60
2018-12-04T07:13:31.283Z,6.60
2018-12-04T07:15:58.882Z,6.60
2018-12-04T07:18:26.374Z,6.60
2018-12-04T07:20:53.808Z,6.60
2018-12-04T07:23:21.308Z,6.50
2018-12-04T07:25:48.776Z,6.50
2018-12-04T07:28:16.338Z,6.40
2018-12-04T07:30:43.794Z,6.40
2018-12-04T07:33:11.282Z,6.40
2018-12-04T07:35:38.776Z,6.40
2018-12-04T07:38:06.224Z,6.40
2018-12-04T07:40:33.678Z,6.40
2018-12-04T07:43:01.183Z,6.40
2018-12-04T07:45:29.276Z,6.40
2018-12-04T07:47:56.811Z,6.40
2018-12-04T07:50:24.288Z,6.40
2018-12-04T07:52:51.736Z,6.40
2018-12-04T07:55:19.226Z,6.40
2018-12-04T07:57:46.712Z,6.30
2018-12-04T08:00:14.174Z,6.30
2018-12-04T08:02:41.634Z,6.40
2018-12-04T08:05:09.216Z,6.30
2018-12-04T08:07:36.684Z,6.30
2018-12-04T08:10:06.082Z,6.30
2018-12-04T08:12:33.568Z,6.30
2018-12-04T08:15:01.220Z,6.40
2018-12-04T08:17:28.794Z,6.40
2018-12-04T08:19:56.276Z,6.40
2018-12-04T08:22:23.734Z,6.40
2018-12-04T08:24:51.202Z,6.30
2018-12-04T08:27:18.786Z,6.40
2018-12-04T08:29:46.259Z,6.40
2018-12-04T08:32:14.128Z,6.40
2018-12-04T08:34:41.609Z,6.30
2018-12-04T08:37:09.083Z,6.30
2018-12-04T08:39:36.518Z,6.40
2018-12-04T08:42:04.014Z,6.40
2018-12-04T08:44:31.484Z,6.50
2018-12-04T08:46:58.976Z,6.50
2018-12-04T08:49:26.406Z,6.50
2018-12-04T08:51:53.842Z,6.50
2018-12-04T08:54:21.295Z,6.60
2018-12-04T08:56:48.822Z,6.60
2018-12-04T08:59:16.308Z,6.60
2018-12-04T09:01:43.741Z,6.60
2018-12-04T09:04:11.244Z,6.70
2018-12-04T09:06:38.828Z,6.70
2018-12-04T09:09:08.352Z,6.70
2018-12-04T09:11:35.894Z,6.80
2018-12-04T09:14:03.477Z,6.90
2018-12-04T09:16:30.951Z,6.80
2018-12-04T09:18:58.429Z,6.90
2018-12-04T09:21:25.996Z,6.90
2018-12-04T09:23:53.565Z,7.00
2018-12-04T09:26:21.136Z,7.00
2018-12-04T09:28:48.683Z,7.10
2018-12-04T09:31:16.404Z,7.10
2018-12-04T09:33:43.908Z,7.20
2018-12-04T09:36:11.424Z,7.10
2018-12-04T09:38:38.868Z,7.20
2018-12-04T09:41:06.446Z,7.20
2018-12-04T09:43:33.927Z,7.30
2018-12-04T09:46:01.422Z,7.30
2018-12-04T09:48:28.885Z,7.40
2018-12-04T09:50:56.337Z,7.40
2018-12-04T09:53:25.368Z,7.50
2018-12-04T09:55:53.026Z,7.50
2018-12-04T09:58:20.486Z,7.60
2018-12-04T10:00:48.057Z,7.70
2018-12-04T10:03:15.573Z,7.70
2018-12-04T10:05:43.004Z,7.80
2018-12-04T10:08:10.445Z,7.90
2018-12-04T10:10:37.900Z,8.00
2018-12-04T10:13:05.390Z,8.00
2018-12-04T10:15:32.966Z,8.10
2018-12-04T10:18:00.444Z,8.20
2018-12-04T10:20:27.916Z,8.20
2018-12-04T10:22:55.492Z,8.30
2018-12-04T10:25:23.051Z,8.30
2018-12-04T10:27:50.514Z,8.40
2018-12-04T10:30:18.029Z,8.50
2018-12-04T10:32:47.401Z,8.60
2018-12-04T10:35:14.890Z,8.60
2018-12-04T10:37:42.361Z,8.60
2018-12-04T10:40:09.809Z,8.50
2018-12-04T10:42:37.250Z,8.60
2018-12-04T10:45:05.684Z,8.70
2018-12-04T10:47:33.154Z,8.70
2018-12-04T10:50:00.667Z,8.70
2018-12-04T10:52:28.196Z,8.80
2018-12-04T10:54:55.677Z,9.00
2018-12-04T10:57:23.222Z,9.10
2018-12-04T10:59:50.695Z,9.20
2018-12-04T11:02:23.183Z,9.10
2018-12-04T11:04:50.766Z,9.20
2018-12-04T11:07:18.338Z,9.40
2018-12-04T11:09:45.797Z,9.90
2018-12-04T11:12:13.278Z,10.40
2018-12-04T11:14:40.846Z,10.80
2018-12-04T11:17:08.296Z,11.20
2018-12-04T11:19:35.801Z,11.70
2018-12-04T11:22:03.313Z,12.10
2018-12-04T11:24:30.818Z,12.50
2018-12-04T11:26:58.301Z,12.60
2018-12-04T11:29:25.754Z,12.90
2018-12-04T11:31:53.259Z,13.30
2018-12-04T11:34:20.813Z,13.40
2018-12-04T11:36:48.262Z,13.50
2018-12-04T11:39:15.749Z,13.60
2018-12-04T11:41:43.225Z,13.80
2018-12-04T11:44:10.691Z,14.00
2018-12-04T11:46:38.181Z,14.40
2018-12-04T11:49:05.679Z,14.70
2018-12-04T11:51:33.194Z,14.80
2018-12-04T11:54:00.800Z,14.60
2018-12-04T11:56:28.344Z,14.60
2018-12-04T11:58:56.021Z,14.60
2018-12-04T12:01:27.817Z,14.70
2018-12-04T12:03:55.447Z,14.90
2018-12-04T12:06:23.026Z,14.80
2018-12-04T12:08:50.478Z,15.10
2018-12-04T12:11:17.931Z,15.30
2018-12-04T12:13:45.370Z,15.40
2018-12-04T12:16:12.824Z,15.50
2018-12-04T12:18:40.278Z,15.60
2018-12-04T12:21:07.842Z,15.80
2018-12-04T12:23:35.316Z,16.10
2018-12-04T12:26:02.759Z,16.20
2018-12-04T12:28:30.218Z,16.40
2018-12-04T12:30:57.672Z,16.10
2018-12-04T12:33:25.148Z,15.90
2018-12-04T12:35:52.667Z,15.60
2018-12-04T12:38:20.130Z,16.20
2018-12-04T12:40:47.612Z,16.80
2018-12-04T12:43:14.688Z,17.30
2018-12-04T12:45:41.742Z,17.40
2018-12-04T12:48:08.807Z,17.70
2018-12-04T12:50:35.877Z,17.80
2018-12-04T12:53:02.905Z,17.80
2018-12-04T12:55:29.983Z,17.80
2018-12-04T12:57:56.989Z,17.90
2018-12-04T13:00:24.113Z,17.90
2018-12-04T13:02:51.158Z,18.50
2018-12-04T13:05:18.219Z,19.20
2018-12-04T13:07:45.288Z,19.70
2018-12-04T13:10:12.357Z,19.80
2018-12-04T13:12:39.397Z,20.20
2018-12-04T13:15:06.426Z,20.70
2018-12-04T13:17:33.449Z,20.70
2018-12-04T13:20:00.503Z,20.40
2018-12-04T13:22:27.551Z,20.20
2018-12-04T13:24:54.595Z,19.50
2018-12-04T13:27:21.655Z,19.50
2018-12-04T13:29:48.735Z,19.90
2018-12-04T13:32:15.826Z,20.00
2018-12-04T13:34:43.033Z,19.80
2018-12-04T13:37:10.093Z,19.60
2018-12-04T13:39:37.105Z,19.60
2018-12-04T13:42:04.124Z,19.30
2018-12-04T13:44:31.296Z,19.30
2018-12-04T13:46:58.338Z,19.20
2018-12-04T13:49:25.350Z,19.30
2018-12-04T13:51:52.367Z,18.80
2018-12-04T13:54:19.441Z,18.70
2018-12-04T13:56:46.602Z,19.20
2018-12-04T13:59:13.631Z,19.50
2018-12-04T14:01:40.820Z,19.60
2018-12-04T14:04:08.081Z,20.10
2018-12-04T14:06:35.158Z,20.20
2018-12-04T14:09:02.213Z,19.90
2018-12-04T14:11:29.363Z,19.80
2018-12-04T14:13:56.416Z,19.70
2018-12-04T14:16:23.585Z,19.30
2018-12-04T14:18:50.733Z,18.80
2018-12-04T14:21:17.810Z,18.70
2018-12-04T14:23:44.919Z,18.60
2018-12-04T14:26:12.531Z,18.50
2018-12-04T14:28:40.081Z,18.30
2018-12-04T14:31:07.671Z,17.90
2018-12-04T14:33:35.132Z,17.30
2018-12-04T14:36:02.626Z,16.50
2018-12-04T14:38:30.282Z,15.80
2018-12-04T14:40:57.973Z,14.90
2018-12-04T14:43:25.516Z,14.50
2018-12-04T14:45:52.976Z,14.00
2018-12-04T14:48:20.457Z,13.60
2018-12-04T14:50:48.044Z,13.30
2018-12-04T14:53:15.704Z,13.10
2018-12-04T14:55:43.293Z,13.00
2018-12-04T14:58:10.845Z,12.90
2018-12-04T15:00:38.428Z,12.50
2018-12-04T15:03:05.982Z,12.40
2018-12-04T15:05:33.463Z,12.30
2018-12-04T15:08:00.994Z,12.10
2018-12-04T15:10:28.634Z,12.00
2018-12-04T15:12:56.183Z,11.80
2018-12-04T15:15:24.819Z,11.60
2018-12-04T15:17:52.558Z,11.50
2018-12-04T15:20:20.186Z,11.50
2018-12-04T15:22:47.723Z,11.30
2018-12-04T15:25:15.305Z,11.20
2018-12-04T15:27:42.838Z,11.10
2018-12-04T15:30:10.448Z,11.00
2018-12-04T15:32:37.938Z,10.90
2018-12-04T15:35:05.617Z,10.80
2018-12-04T15:37:33.141Z,10.60
2018-12-04T15:40:00.605Z,10.50
2018-12-04T15:42:28.168Z,10.40
2018-12-04T15:44:55.702Z,10.30
2018-12-04T15:47:23.203Z,10.20
2018-12-04T15:49:50.750Z,10.10
2018-12-04T15:52:18.362Z,10.00
2018-12-04T15:54:45.804Z,9.90
2018-12-04T15:57:13.260Z,9.80
2018-12-04T15:59:40.690Z,9.70
2018-12-04T16:02:08.423Z,9.60
2018-12-04T16:04:35.909Z,9.60
2018-12-04T16:07:03.436Z,9.50
2018-12-04T16:09:30.898Z,9.40
2018-12-04T16:11:58.415Z,9.40
2018-12-04T16:14:25.872Z,9.30
2018-12-04T16:16:53.350Z,9.20
2018-12-04T16:19:20.902Z,9.20
2018-12-04T16:21:48.358Z,9.10
2018-12-04T16:24:15.972Z,9.00
2018-12-04T16:26:43.436Z,9.00
2018-12-04T16:29:10.889Z,8.90
2018-12-04T16:31:38.365Z,8.80
2018-12-04T16:34:05.938Z,8.70
2018-12-04T16:36:33.400Z,8.70
2018-12-04T16:39:00.912Z,8.60
2018-12-04T16:41:28.460Z,8.50
2018-12-04T16:43:56.018Z,8.50
2018-12-04T16:46:23.592Z,8.40
2018-12-04T16:48:51.026Z,8.40
2018-12-04T16:51:18.545Z,8.30
2018-12-04T16:53:46.021Z,8.20
2018-12-04T16:56:13.592Z,8.20
2018-12-04T16:58:41.129Z,8.10
2018-12-04T17:01:08.625Z,8.10
2018-12-04T17:03:36.101Z,8.10
2018-12-04T17:06:04.973Z,8.00
2018-12-04T17:08:32.589Z,8.00
2018-12-04T17:11:00.018Z,7.90
2018-12-04T17:13:27.517Z,7.90
2018-12-04T17:15:55.691Z,7.80
2018-12-04T17:18:23.140Z,7.80
2018-12-04T17:20:50.592Z,7.70
2018-12-04T17:23:18.090Z,7.70
2018-12-04T17:25:45.566Z,7.60
2018-12-04T17:28:14.471Z,7.60
2018-12-04T17:30:42.257Z,7.50
2018-12-04T17:33:09.832Z,7.30
2018-12-04T17:35:37.408Z,7.10
2018-12-04T17:38:04.890Z,7.00
2018-12-04T17:40:32.441Z,6.90
2018-12-04T17:42:59.923Z,6.80
2018-12-04T17:45:27.378Z,6.70
2018-12-04T17:47:54.857Z,6.60
2018-12-04T17:50:22.403Z,6.50
2018-12-04T17:52:49.976Z,6.40
2018-12-04T17:55:17.422Z,6.40
2018-12-04T17:57:44.918Z,6.30
2018-12-04T18:00:13.760Z,6.30
2018-12-04T18:02:41.204Z,6.30
2018-12-04T18:05:08.792Z,6.30
2018-12-04T18:07:36.253Z,6.20
2018-12-04T18:10:04.538Z,6.20
2018-12-04T18:12:32.102Z,6.30
2018-12-04T18:14:59.827Z,6.40
2018-12-04T18:17:27.339Z,6.50
2018-12-04T18:19:54.814Z,6.50
2018-12-04T18:22:22.379Z,6.50
2018-12-04T18:24:49.888Z,6.50
2018-12-04T18:27:17.544Z,6.50
2018-12-04T18:32:47.714Z,6.40
2018-12-04T18:35:15.196Z,6.30
2018-12-04T18:37:42.749Z,6.30
2018-12-04T18:40:10.374Z,6.30
2018-12-04T18:42:37.893Z,6.20
2018-12-04T18:45:06.282Z,6.00
2018-12-04T18:47:33.748Z,5.80
2018-12-04T18:50:01.238Z,5.70
2018-12-04T18:52:28.789Z,5.50
2018-12-04T18:54:56.326Z,5.40
2018-12-04T18:57:23.922Z,5.30
2018-12-04T18:59:51.390Z,5.20
2018-12-04T19:02:18.835Z,5.20
2018-12-04T19:04:46.345Z,5.10
2018-12-04T19:07:13.812Z,5.10
2018-12-04T19:09:41.250Z,5.00
2018-12-04T19:12:10.144Z,5.00
2018-12-04T19:14:37.728Z,4.90
2018-12-04T19:17:05.228Z,4.90
2018-12-04T19:19:32.705Z,4.80
2018-12-04T19:22:00.258Z,4.80
2018-12-04T19:24:27.738Z,4.70
2018-12-04T19:26:55.197Z,4.60
2018-12-04T19:29:22.685Z,4.60
2018-12-04T19:31:50.276Z,4.50
2018-12-04T19:34:17.807Z,4.50
2018-12-04T19:36:45.296Z,4.50
2018-12-04T19:39:12.765Z,4.40
2018-12-04T19:41:40.331Z,4.40
2018-12-04T19:44:07.894Z,4.40
2018-12-04T19:46:35.468Z,4.40
2018-12-04T19:49:03.050Z,4.30
2018-12-04T19:51:30.510Z,4.30
2018-12-04T19:53:57.974Z,4.30
2018-12-04T19:56:25.498Z,4.20
2018-12-04T19:58:53.029Z,4.20
2018-12-04T20:01:20.539Z,4.20
2018-12-04T20:03:48.078Z,4.20
2018-12-04T20:06:15.646Z,4.20
2018-12-04T20:08:48.830Z,4.10
2018-12-04T20:11:16.306Z,4.10
2018-12-04T20:13:43.808Z,4.00
2018-12-04T20:16:11.341Z,4.00
2018-12-04T20:18:38.812Z,4.00
2018-12-04T20:21:06.298Z,4.00
2018-12-04T20:23:33.769Z,3.90
2018-12-04T20:26:01.259Z,3.90
2018-12-04T20:28:28.818Z,3.90
2018-12-04T20:30:56.263Z,3.90
2018-12-04T20:33:23.748Z,3.90
2018-12-04T20:35:51.191Z,3.90
2018-12-04T20:38:18.689Z,3.90
2018-12-04T20:40:46.127Z,3.90
2018-12-04T20:43:13.610Z,3.90
2018-12-04T20:45:41.082Z,3.90
2018-12-04T20:48:08.565Z,3.80
2018-12-04T20:50:36.075Z,3.80
2018-12-04T20:53:03.799Z,3.80
2018-12-04T20:55:31.371Z,3.80
2018-12-04T20:57:58.952Z,3.80
2018-12-04T21:00:26.506Z,3.80
2018-12-04T21:02:53.983Z,3.70
2018-12-04T21:05:21.450Z,3.70
2018-12-04T21:07:48.895Z,3.70
2018-12-04T21:10:16.345Z,3.70
2018-12-04T21:12:43.909Z,3.60
2018-12-04T21:15:11.444Z,3.70
2018-12-04T21:17:38.937Z,3.60
2018-12-04T21:20:06.488Z,3.60
2018-12-04T21:22:34.165Z,3.50
2018-12-04T21:25:01.746Z,3.50
2018-12-04T21:27:35.050Z,3.60
2018-12-04T21:30:08.274Z,3.60
2018-12-04T21:32:41.639Z,3.50
2018-12-04T21:35:14.906Z,3.30
2018-12-04T21:37:47.968Z,3.30
2018-12-04T21:40:21.028Z,3.40
2018-12-04T21:42:54.323Z,3.30
2018-12-04T21:45:27.638Z,3.30
2018-12-04T21:47:57.017Z,3.30
2018-12-04T21:50:24.564Z,3.20
2018-12-04T21:52:52.002Z,3.20
2018-12-04T21:55:19.490Z,3.20
2018-12-04T21:57:47.357Z,3.20
2018-12-04T22:00:14.834Z,3.20
2018-12-04T22:02:42.324Z,3.30
2018-12-04T22:05:09.778Z,3.20
2018-12-04T22:07:37.256Z,3.20
2018-12-04T22:10:06.476Z,3.20
2018-12-04T22:12:34.027Z,3.10
2018-12-04T22:15:01.508Z,3.10
2018-12-04T22:17:28.992Z,3.00
2018-12-04T22:19:56.432Z,3.00
2018-12-04T22:22:23.903Z,3.00
2018-12-04T22:24:51.389Z,3.00
2018-12-04T22:27:18.842Z,2.90
2018-12-04T22:29:46.324Z,2.90
2018-12-04T22:32:13.800Z,2.90
2018-12-04T22:34:41.257Z,2.90
2018-12-04T22:37:08.710Z,2.80
2018-12-04T22:39:36.315Z,2.80
2018-12-04T22:42:03.890Z,2.80
2018-12-04T22:44:31.358Z,2.80
2018-12-04T22:46:58.916Z,2.70
2018-12-04T22:49:26.400Z,2.70
2018-12-04T22:51:53.942Z,2.80
2018-12-04T22:54:21.429Z,2.80
2018-12-04T22:56:49.003Z,2.80
2018-12-04T22:59:16.562Z,2.70
2018-12-04T23:01:44.101Z,2.70
2018-12-04T23:04:11.706Z,2.70
2018-12-04T23:06:39.279Z,2.70
2018-12-04T23:09:08.178Z,2.60
2018-12-04T23:11:36.310Z,2.60
2018-12-04T23:14:04.064Z,2.60
2018-12-04T23:16:31.594Z,2.50
2018-12-04T23:18:59.188Z,2.50
2018-12-04T23:21:26.632Z,2.50
2018-12-04T23:23:54.140Z,2.50
2018-12-04T23:26:21.594Z,2.50
2018-12-04T23:28:49.052Z,2.50
2018-12-04T23:31:16.645Z,2.40
2018-12-04T23:33:44.124Z,2.30
2018-12-04T23:36:11.577Z,2.30
2018-12-04T23:38:39.150Z,2.20
2018-12-04T23:41:06.610Z,2.30
2018-12-04T23:43:34.190Z,2.30
2018-12-04T23:46:01.704Z,2.40
2018-12-04T23:48:29.230Z,2.40
2018-12-04T23:50:56.667Z,2.40
2018-12-04T23:53:24.117Z,2.40
2018-12-04T23:55:51.588Z,2.40
2018-12-04T23:58:19.106Z,2.50
